sensor_id;sensor_type;location;lat;lon;timestamp;temperature;humidity
20035;DHT22;10178;48.034;9.800;2023-04-16T00:01:27;6.10;99.90
20035;DHT22;10178;48.034;9.800;2023-04-16T00:03:53;6.60;99.90
20035;DHT22;10178;48.034;9.800;2023-04-16T00:06:19;6.50;99.90
20035;DHT22;10178;48.034;9.800;2023-04-16T00:08:45;6.30;99.90
20035;DHT22;10178;48.034;9.800;2023-04-16T00:11:10;6.40;99.90
20035;DHT22;10178;48.034;9.800;2023-04-16T00:13:36;6.50;99.90
20035;DHT22;10178;48.034;9.800;2023-04-16T00:16:02;6.60;99.90
20035;DHT22;10178;48.034;9.800;2023-04-16T00:18:27;6.50;99.90
20035;DHT22;10178;48.034;9.800;2023-04-16T00:20:53;6.80;99.90
20035;DHT22;10178;48.034;9.800;2023-04-16T00:23:19;7.10;99.90
20035;DHT22;10178;48.034;9.800;2023-04-16T00:25:45;7.40;99.90
20035;DHT22;10178;48.034;9.800;2023-04-16T00:28:11;7.50;99.90
20035;DHT22;10178;48.034;9.800;2023-04-16T00:30:36;7.60;99.90
20035;DHT22;10178;48.034;9.800;2023-04-16T00:33:02;7.80;99.90
20035;DHT22;10178;48.034;9.800;2023-04-16T00:35:29;8.20;99.90
20035;DHT22;10178;48.034;9.800;2023-04-16T00:37:54;7.70;99.90
20035;DHT22;10178;48.034;9.800;2023-04-16T00:40:20;7.70;99.90
20035;DHT22;10178;48.034;9.800;2023-04-16T00:42:46;7.70;99.90
20035;DHT22;10178;48.034;9.800;2023-04-16T00:45:11;8.00;99.90
20035;DHT22;10178;48.034;9.800;2023-04-16T00:47:37;8.40;99.90
20035;DHT22;10178;48.034;9.800;2023-04-16T00:50:03;8.70;99.90
20035;DHT22;10178;48.034;9.800;2023-04-16T00:52:31;8.80;99.90
20035;DHT22;10178;48.034;9.800;2023-04-16T00:54:57;8.90;99.90
20035;DHT22;10178;48.034;9.800;2023-04-16T00:57:23;9.10;99.90
20035;DHT22;10178;48.034;9.800;2023-04-16T00:59:49;9.20;99.90
20035;DHT22;10178;48.034;9.800;2023-04-16T01:02:15;9.30;99.90
20035;DHT22;10178;48.034;9.800;2023-04-16T01:04:41;9.30;99.90
20035;DHT22;10178;48.034;9.800;2023-04-16T01:07:07;9.30;99.90
20035;DHT22;10178;48.034;9.800;2023-04-16T01:09:32;9.30;99.90
20035;DHT22;10178;48.034;9.800;2023-04-16T01:11:58;9.30;99.90
20035;DHT22;10178;48.034;9.800;2023-04-16T01:14:23;9.30;99.90
20035;DHT22;10178;48.034;9.800;2023-04-16T01:16:49;9.10;99.90
20035;DHT22;10178;48.034;9.800;2023-04-16T01:19:15;9.00;99.90
20035;DHT22;10178;48.034;9.800;2023-04-16T01:21:40;8.80;99.90
20035;DHT22;10178;48.034;9.800;2023-04-16T01:24:06;9.00;99.90
20035;DHT22;10178;48.034;9.800;2023-04-16T01:26:32;9.00;99.90
20035;DHT22;10178;48.034;9.800;2023-04-16T01:28:58;9.00;99.90
20035;DHT22;10178;48.034;9.800;2023-04-16T01:31:24;9.10;99.90
20035;DHT22;10178;48.034;9.800;2023-04-16T01:33:50;8.80;99.90
20035;DHT22;10178;48.034;9.800;2023-04-16T01:36:16;8.80;99.90
20035;DHT22;10178;48.034;9.800;2023-04-16T01:38:41;8.90;99.90
20035;DHT22;10178;48.034;9.800;2023-04-16T01:41:07;9.10;99.90
20035;DHT22;10178;48.034;9.800;2023-04-16T01:43:33;9.20;99.90
20035;DHT22;10178;48.034;9.800;2023-04-16T01:46:17;9.20;99.90
20035;DHT22;10178;48.034;9.800;2023-04-16T01:48:45;9.20;99.90
20035;DHT22;10178;48.034;9.800;2023-04-16T01:51:11;9.20;99.90
20035;DHT22;10178;48.034;9.800;2023-04-16T01:53:36;9.20;99.90
20035;DHT22;10178;48.034;9.800;2023-04-16T01:56:02;9.20;99.90
20035;DHT22;10178;48.034;9.800;2023-04-16T01:58:28;9.20;99.90
20035;DHT22;10178;48.034;9.800;2023-04-16T02:00:54;9.20;99.90
20035;DHT22;10178;48.034;9.800;2023-04-16T02:03:20;9.20;99.90
20035;DHT22;10178;48.034;9.800;2023-04-16T02:05:49;9.20;99.90
20035;DHT22;10178;48.034;9.800;2023-04-16T02:08:15;9.20;99.90
20035;DHT22;10178;48.034;9.800;2023-04-16T02:10:41;9.30;99.90
20035;DHT22;10178;48.034;9.800;2023-04-16T02:13:07;9.20;99.90
20035;DHT22;10178;48.034;9.800;2023-04-16T02:15:32;9.00;99.90
20035;DHT22;10178;48.034;9.800;2023-04-16T02:17:58;9.10;99.90
20035;DHT22;10178;48.034;9.800;2023-04-16T02:20:23;9.20;99.90
20035;DHT22;10178;48.034;9.800;2023-04-16T02:22:49;9.20;99.90
20035;DHT22;10178;48.034;9.800;2023-04-16T02:25:15;9.10;99.90
20035;DHT22;10178;48.034;9.800;2023-04-16T02:27:40;8.60;99.90
20035;DHT22;10178;48.034;9.800;2023-04-16T02:30:06;8.30;99.90
20035;DHT22;10178;48.034;9.800;2023-04-16T02:32:32;8.40;99.90
20035;DHT22;10178;48.034;9.800;2023-04-16T02:34:58;8.60;99.90
20035;DHT22;10178;48.034;9.800;2023-04-16T02:37:23;8.90;99.90
20035;DHT22;10178;48.034;9.800;2023-04-16T02:39:50;8.80;99.90
20035;DHT22;10178;48.034;9.800;2023-04-16T02:42:16;8.90;99.90
20035;DHT22;10178;48.034;9.800;2023-04-16T02:44:41;8.90;99.90
20035;DHT22;10178;48.034;9.800;2023-04-16T02:47:07;8.90;99.90
20035;DHT22;10178;48.034;9.800;2023-04-16T02:49:32;8.40;99.90
20035;DHT22;10178;48.034;9.800;2023-04-16T02:52:00;8.00;99.90
20035;DHT22;10178;48.034;9.800;2023-04-16T02:54:25;8.00;99.90
20035;DHT22;10178;48.034;9.800;2023-04-16T02:56:51;8.00;99.90
20035;DHT22;10178;48.034;9.800;2023-04-16T02:59:16;7.80;99.90
20035;DHT22;10178;48.034;9.800;2023-04-16T03:01:42;7.60;99.90
20035;DHT22;10178;48.034;9.800;2023-04-16T03:04:08;7.60;99.90
20035;DHT22;10178;48.034;9.800;2023-04-16T03:06:33;7.70;99.90
20035;DHT22;10178;48.034;9.800;2023-04-16T03:08:59;8.00;99.90
20035;DHT22;10178;48.034;9.800;2023-04-16T03:11:24;8.00;99.90
20035;DHT22;10178;48.034;9.800;2023-04-16T03:13:50;8.10;99.90
20035;DHT22;10178;48.034;9.800;2023-04-16T03:16:16;8.20;99.90
20035;DHT22;10178;48.034;9.800;2023-04-16T03:18:41;8.50;99.90
20035;DHT22;10178;48.034;9.800;2023-04-16T03:21:07;8.50;99.90
20035;DHT22;10178;48.034;9.800;2023-04-16T03:23:32;8.50;99.90
20035;DHT22;10178;48.034;9.800;2023-04-16T03:25:58;8.50;99.90
20035;DHT22;10178;48.034;9.800;2023-04-16T03:28:24;8.20;99.90
20035;DHT22;10178;48.034;9.800;2023-04-16T03:30:51;7.80;99.90
20035;DHT22;10178;48.034;9.800;2023-04-16T03:33:18;7.60;99.90
20035;DHT22;10178;48.034;9.800;2023-04-16T03:35:43;7.30;99.90
20035;DHT22;10178;48.034;9.800;2023-04-16T03:38:09;7.50;99.90
20035;DHT22;10178;48.034;9.800;2023-04-16T03:40:35;7.90;99.90
20035;DHT22;10178;48.034;9.800;2023-04-16T03:43:00;7.60;99.90
20035;DHT22;10178;48.034;9.800;2023-04-16T03:45:26;7.00;99.90
20035;DHT22;10178;48.034;9.800;2023-04-16T03:47:52;6.70;99.90
20035;DHT22;10178;48.034;9.800;2023-04-16T03:50:20;6.50;99.90
20035;DHT22;10178;48.034;9.800;2023-04-16T03:52:46;6.60;99.90
20035;DHT22;10178;48.034;9.800;2023-04-16T03:55:13;6.60;99.90
20035;DHT22;10178;48.034;9.800;2023-04-16T03:57:39;6.30;99.90
20035;DHT22;10178;48.034;9.800;2023-04-16T04:00:06;6.10;99.90
20035;DHT22;10178;48.034;9.800;2023-04-16T04:02:32;6.00;99.90
20035;DHT22;10178;48.034;9.800;2023-04-16T04:04:57;6.00;99.90
20035;DHT22;10178;48.034;9.800;2023-04-16T04:07:23;6.10;99.90
20035;DHT22;10178;48.034;9.800;2023-04-16T04:09:49;5.90;99.90
20035;DHT22;10178;48.034;9.800;2023-04-16T04:12:14;6.10;99.90
20035;DHT22;10178;48.034;9.800;2023-04-16T04:14:40;6.30;99.90
20035;DHT22;10178;48.034;9.800;2023-04-16T04:17:07;6.30;99.90
20035;DHT22;10178;48.034;9.800;2023-04-16T04:19:32;6.40;99.90
20035;DHT22;10178;48.034;9.800;2023-04-16T04:21:58;6.40;99.90
20035;DHT22;10178;48.034;9.800;2023-04-16T04:24:24;6.30;99.90
20035;DHT22;10178;48.034;9.800;2023-04-16T04:26:51;6.30;99.90
20035;DHT22;10178;48.034;9.800;2023-04-16T04:29:17;6.10;99.90
20035;DHT22;10178;48.034;9.800;2023-04-16T04:31:42;6.00;99.90
20035;DHT22;10178;48.034;9.800;2023-04-16T04:34:08;6.00;99.90
20035;DHT22;10178;48.034;9.800;2023-04-16T04:36:33;6.00;99.90
20035;DHT22;10178;48.034;9.800;2023-04-16T04:38:59;6.00;99.90
20035;DHT22;10178;48.034;9.800;2023-04-16T04:41:25;6.00;99.90
20035;DHT22;10178;48.034;9.800;2023-04-16T04:43:51;5.90;99.90
20035;DHT22;10178;48.034;9.800;2023-04-16T04:46:17;6.00;99.90
20035;DHT22;10178;48.034;9.800;2023-04-16T04:48:42;6.10;99.90
20035;DHT22;10178;48.034;9.800;2023-04-16T04:51:08;6.00;99.90
20035;DHT22;10178;48.034;9.800;2023-04-16T04:53:33;6.10;99.90
20035;DHT22;10178;48.034;9.800;2023-04-16T04:55:59;6.10;99.90
20035;DHT22;10178;48.034;9.800;2023-04-16T04:58:25;6.20;99.90
20035;DHT22;10178;48.034;9.800;2023-04-16T05:00:50;6.30;99.90
20035;DHT22;10178;48.034;9.800;2023-04-16T05:03:19;6.40;99.90
20035;DHT22;10178;48.034;9.800;2023-04-16T05:05:45;6.30;99.90
20035;DHT22;10178;48.034;9.800;2023-04-16T05:08:11;6.40;99.90
20035;DHT22;10178;48.034;9.800;2023-04-16T05:10:37;6.40;99.90
20035;DHT22;10178;48.034;9.800;2023-04-16T05:13:02;6.40;99.90
20035;DHT22;10178;48.034;9.800;2023-04-16T05:15:28;6.50;99.90
20035;DHT22;10178;48.034;9.800;2023-04-16T05:17:54;6.70;99.90
20035;DHT22;10178;48.034;9.800;2023-04-16T05:20:21;6.70;99.90
20035;DHT22;10178;48.034;9.800;2023-04-16T05:22:49;6.70;99.90
20035;DHT22;10178;48.034;9.800;2023-04-16T05:25:15;6.50;99.90
20035;DHT22;10178;48.034;9.800;2023-04-16T05:27:41;6.30;99.90
20035;DHT22;10178;48.034;9.800;2023-04-16T05:30:08;6.30;99.90
20035;DHT22;10178;48.034;9.800;2023-04-16T05:32:34;6.50;99.90
20035;DHT22;10178;48.034;9.800;2023-04-16T05:34:59;6.70;99.90
20035;DHT22;10178;48.034;9.800;2023-04-16T05:37:25;6.80;99.90
20035;DHT22;10178;48.034;9.800;2023-04-16T05:39:51;7.00;99.90
20035;DHT22;10178;48.034;9.800;2023-04-16T05:42:16;6.90;99.90
20035;DHT22;10178;48.034;9.800;2023-04-16T05:44:42;7.10;99.90
20035;DHT22;10178;48.034;9.800;2023-04-16T05:47:07;7.10;99.90
20035;DHT22;10178;48.034;9.800;2023-04-16T05:49:34;7.10;99.90
20035;DHT22;10178;48.034;9.800;2023-04-16T05:52:02;7.00;99.90
20035;DHT22;10178;48.034;9.800;2023-04-16T05:54:27;7.20;99.90
20035;DHT22;10178;48.034;9.800;2023-04-16T05:56:53;7.10;99.90
20035;DHT22;10178;48.034;9.800;2023-04-16T05:59:18;6.90;99.90
20035;DHT22;10178;48.034;9.800;2023-04-16T06:01:44;6.80;99.90
20035;DHT22;10178;48.034;9.800;2023-04-16T06:04:10;6.70;99.90
20035;DHT22;10178;48.034;9.800;2023-04-16T06:06:35;7.00;99.90
20035;DHT22;10178;48.034;9.800;2023-04-16T06:09:02;7.30;99.90
20035;DHT22;10178;48.034;9.800;2023-04-16T06:11:29;7.40;99.90
20035;DHT22;10178;48.034;9.800;2023-04-16T06:13:55;7.30;99.90
20035;DHT22;10178;48.034;9.800;2023-04-16T06:16:21;7.50;99.90
20035;DHT22;10178;48.034;9.800;2023-04-16T06:18:46;7.70;99.90
20035;DHT22;10178;48.034;9.800;2023-04-16T06:21:12;7.30;99.90
20035;DHT22;10178;48.034;9.800;2023-04-16T06:23:37;7.20;99.90
20035;DHT22;10178;48.034;9.800;2023-04-16T06:26:04;7.50;99.90
20035;DHT22;10178;48.034;9.800;2023-04-16T06:28:30;7.50;99.90
20035;DHT22;10178;48.034;9.800;2023-04-16T06:30:55;7.30;99.90
20035;DHT22;10178;48.034;9.800;2023-04-16T06:33:21;7.30;99.90
20035;DHT22;10178;48.034;9.800;2023-04-16T06:35:47;7.40;99.90
20035;DHT22;10178;48.034;9.800;2023-04-16T06:38:13;7.60;99.90
20035;DHT22;10178;48.034;9.800;2023-04-16T06:40:40;7.70;99.90
20035;DHT22;10178;48.034;9.800;2023-04-16T06:43:05;7.90;99.90
20035;DHT22;10178;48.034;9.800;2023-04-16T06:45:31;8.00;99.90
20035;DHT22;10178;48.034;9.800;2023-04-16T06:47:57;7.80;99.90
20035;DHT22;10178;48.034;9.800;2023-04-16T06:50:27;7.80;99.90
20035;DHT22;10178;48.034;9.800;2023-04-16T06:52:54;7.80;99.90
20035;DHT22;10178;48.034;9.800;2023-04-16T06:55:19;8.00;99.90
20035;DHT22;10178;48.034;9.800;2023-04-16T06:57:45;8.10;99.90
20035;DHT22;10178;48.034;9.800;2023-04-16T07:00:11;8.20;99.90
20035;DHT22;10178;48.034;9.800;2023-04-16T07:02:37;8.20;99.90
20035;DHT22;10178;48.034;9.800;2023-04-16T07:05:02;8.10;99.90
20035;DHT22;10178;48.034;9.800;2023-04-16T07:07:28;8.10;99.90
20035;DHT22;10178;48.034;9.800;2023-04-16T07:09:54;8.20;99.90
20035;DHT22;10178;48.034;9.800;2023-04-16T07:12:19;8.10;99.90
20035;DHT22;10178;48.034;9.800;2023-04-16T07:14:45;7.80;99.90
20035;DHT22;10178;48.034;9.800;2023-04-16T07:17:11;7.90;99.90
20035;DHT22;10178;48.034;9.800;2023-04-16T07:19:37;8.10;99.90
20035;DHT22;10178;48.034;9.800;2023-04-16T07:22:02;8.30;99.90
20035;DHT22;10178;48.034;9.800;2023-04-16T07:24:28;8.40;99.90
20035;DHT22;10178;48.034;9.800;2023-04-16T07:26:54;8.50;99.90
20035;DHT22;10178;48.034;9.800;2023-04-16T07:29:20;8.60;99.90
20035;DHT22;10178;48.034;9.800;2023-04-16T07:31:45;8.70;99.90
20035;DHT22;10178;48.034;9.800;2023-04-16T07:34:11;8.80;99.90
20035;DHT22;10178;48.034;9.800;2023-04-16T07:36:37;8.80;99.90
20035;DHT22;10178;48.034;9.800;2023-04-16T07:39:03;8.80;99.90
20035;DHT22;10178;48.034;9.800;2023-04-16T07:41:30;8.90;99.90
20035;DHT22;10178;48.034;9.800;2023-04-16T07:43:56;8.90;99.90
20035;DHT22;10178;48.034;9.800;2023-04-16T07:46:22;8.90;99.90
20035;DHT22;10178;48.034;9.800;2023-04-16T07:48:48;8.80;99.90
20035;DHT22;10178;48.034;9.800;2023-04-16T07:51:13;8.80;99.90
20035;DHT22;10178;48.034;9.800;2023-04-16T07:53:39;8.80;99.90
20035;DHT22;10178;48.034;9.800;2023-04-16T07:56:06;8.80;99.90
20035;DHT22;10178;48.034;9.800;2023-04-16T07:58:32;8.80;99.90
20035;DHT22;10178;48.034;9.800;2023-04-16T08:00:58;8.80;99.90
20035;DHT22;10178;48.034;9.800;2023-04-16T08:03:23;8.80;99.90
20035;DHT22;10178;48.034;9.800;2023-04-16T08:05:49;8.80;99.90
20035;DHT22;10178;48.034;9.800;2023-04-16T08:08:15;8.80;99.90
20035;DHT22;10178;48.034;9.800;2023-04-16T08:10:40;8.90;99.90
20035;DHT22;10178;48.034;9.800;2023-04-16T08:13:06;8.90;99.90
20035;DHT22;10178;48.034;9.800;2023-04-16T08:15:32;8.90;99.90
20035;DHT22;10178;48.034;9.800;2023-04-16T08:17:57;9.00;99.90
20035;DHT22;10178;48.034;9.800;2023-04-16T08:20:24;9.00;99.90
20035;DHT22;10178;48.034;9.800;2023-04-16T08:22:49;8.90;99.90
20035;DHT22;10178;48.034;9.800;2023-04-16T08:25:15;9.00;99.90
20035;DHT22;10178;48.034;9.800;2023-04-16T08:27:41;9.00;99.90
20035;DHT22;10178;48.034;9.800;2023-04-16T08:30:07;9.10;99.90
20035;DHT22;10178;48.034;9.800;2023-04-16T08:32:32;9.10;99.90
20035;DHT22;10178;48.034;9.800;2023-04-16T08:34:59;9.10;99.90
20035;DHT22;10178;48.034;9.800;2023-04-16T08:37:25;9.20;99.90
20035;DHT22;10178;48.034;9.800;2023-04-16T08:39:51;9.10;99.90
20035;DHT22;10178;48.034;9.800;2023-04-16T08:42:39;9.10;99.90
20035;DHT22;10178;48.034;9.800;2023-04-16T08:45:14;9.10;99.90
20035;DHT22;10178;48.034;9.800;2023-04-16T08:47:47;9.10;99.90
20035;DHT22;10178;48.034;9.800;2023-04-16T08:50:18;9.20;99.90
20035;DHT22;10178;48.034;9.800;2023-04-16T08:52:57;9.20;99.90
20035;DHT22;10178;48.034;9.800;2023-04-16T08:55:31;9.10;99.90
20035;DHT22;10178;48.034;9.800;2023-04-16T08:57:59;9.10;99.90
20035;DHT22;10178;48.034;9.800;2023-04-16T09:00:25;9.10;99.90
20035;DHT22;10178;48.034;9.800;2023-04-16T09:02:52;9.10;99.90
20035;DHT22;10178;48.034;9.800;2023-04-16T09:05:18;9.00;99.90
20035;DHT22;10178;48.034;9.800;2023-04-16T09:07:46;9.00;99.90
20035;DHT22;10178;48.034;9.800;2023-04-16T09:10:14;8.90;99.90
20035;DHT22;10178;48.034;9.800;2023-04-16T09:12:41;8.90;99.90
20035;DHT22;10178;48.034;9.800;2023-04-16T09:15:09;8.90;99.90
20035;DHT22;10178;48.034;9.800;2023-04-16T09:17:35;8.90;99.90
20035;DHT22;10178;48.034;9.800;2023-04-16T09:20:02;8.90;99.90
20035;DHT22;10178;48.034;9.800;2023-04-16T09:22:30;8.90;99.90
20035;DHT22;10178;48.034;9.800;2023-04-16T09:24:55;8.90;99.90
20035;DHT22;10178;48.034;9.800;2023-04-16T09:27:22;9.00;99.90
20035;DHT22;10178;48.034;9.800;2023-04-16T09:29:48;9.00;99.90
20035;DHT22;10178;48.034;9.800;2023-04-16T09:32:14;9.00;99.90
20035;DHT22;10178;48.034;9.800;2023-04-16T09:34:59;9.00;99.90
20035;DHT22;10178;48.034;9.800;2023-04-16T09:37:29;8.90;99.90
20035;DHT22;10178;48.034;9.800;2023-04-16T09:40:00;8.90;99.90
20035;DHT22;10178;48.034;9.800;2023-04-16T09:42:28;8.80;99.90
20035;DHT22;10178;48.034;9.800;2023-04-16T09:44:54;8.80;99.90
20035;DHT22;10178;48.034;9.800;2023-04-16T09:47:21;8.90;99.90
20035;DHT22;10178;48.034;9.800;2023-04-16T09:49:47;8.90;99.90
20035;DHT22;10178;48.034;9.800;2023-04-16T09:52:13;8.90;99.90
20035;DHT22;10178;48.034;9.800;2023-04-16T09:54:52;9.00;99.90
20035;DHT22;10178;48.034;9.800;2023-04-16T09:59:45;8.90;99.90
20035;DHT22;10178;48.034;9.800;2023-04-16T10:02:11;8.90;99.90
20035;DHT22;10178;48.034;9.800;2023-04-16T10:04:55;9.00;99.90
20035;DHT22;10178;48.034;9.800;2023-04-16T10:07:26;9.00;99.90
20035;DHT22;10178;48.034;9.800;2023-04-16T10:09:52;9.00;99.90
20035;DHT22;10178;48.034;9.800;2023-04-16T10:12:19;9.00;99.90
20035;DHT22;10178;48.034;9.800;2023-04-16T10:14:45;9.00;99.90
20035;DHT22;10178;48.034;9.800;2023-04-16T10:17:10;9.00;99.90
20035;DHT22;10178;48.034;9.800;2023-04-16T10:19:36;9.00;99.90
20035;DHT22;10178;48.034;9.800;2023-04-16T10:22:02;8.90;99.90
20035;DHT22;10178;48.034;9.800;2023-04-16T10:24:29;8.90;99.90
20035;DHT22;10178;48.034;9.800;2023-04-16T10:26:57;8.90;99.90
20035;DHT22;10178;48.034;9.800;2023-04-16T10:29:24;8.90;99.90
20035;DHT22;10178;48.034;9.800;2023-04-16T10:31:50;8.90;99.90
20035;DHT22;10178;48.034;9.800;2023-04-16T10:34:17;8.90;99.90
20035;DHT22;10178;48.034;9.800;2023-04-16T10:36:50;9.00;99.90
20035;DHT22;10178;48.034;9.800;2023-04-16T10:39:22;9.00;99.90
20035;DHT22;10178;48.034;9.800;2023-04-16T10:41:49;9.00;99.90
20035;DHT22;10178;48.034;9.800;2023-04-16T10:44:17;9.00;99.90
20035;DHT22;10178;48.034;9.800;2023-04-16T10:46:45;9.00;99.90
20035;DHT22;10178;48.034;9.800;2023-04-16T10:49:17;9.00;99.90
20035;DHT22;10178;48.034;9.800;2023-04-16T10:54:27;9.00;99.90
20035;DHT22;10178;48.034;9.800;2023-04-16T10:56:56;9.00;99.90
20035;DHT22;10178;48.034;9.800;2023-04-16T10:59:22;9.00;99.90
20035;DHT22;10178;48.034;9.800;2023-04-16T11:01:54;9.00;99.90
20035;DHT22;10178;48.034;9.800;2023-04-16T11:15:06;9.00;99.90
20035;DHT22;10178;48.034;9.800;2023-04-16T11:20:09;9.00;99.90
20035;DHT22;10178;48.034;9.800;2023-04-16T11:22:35;9.00;99.90
20035;DHT22;10178;48.034;9.800;2023-04-16T11:25:01;9.00;99.90
20035;DHT22;10178;48.034;9.800;2023-04-16T11:27:29;9.00;99.90
20035;DHT22;10178;48.034;9.800;2023-04-16T11:30:08;8.90;99.90
20035;DHT22;10178;48.034;9.800;2023-04-16T11:32:35;8.90;99.90
20035;DHT22;10178;48.034;9.800;2023-04-16T11:35:02;9.00;99.90
20035;DHT22;10178;48.034;9.800;2023-04-16T11:37:33;9.00;99.90
20035;DHT22;10178;48.034;9.800;2023-04-16T11:39:59;9.00;99.90
20035;DHT22;10178;48.034;9.800;2023-04-16T11:42:26;8.90;99.90
20035;DHT22;10178;48.034;9.800;2023-04-16T11:44:57;8.90;99.90
20035;DHT22;10178;48.034;9.800;2023-04-16T11:47:25;9.00;99.90
20035;DHT22;10178;48.034;9.800;2023-04-16T11:49:51;9.00;99.90
20035;DHT22;10178;48.034;9.800;2023-04-16T11:52:31;9.00;99.90
20035;DHT22;10178;48.034;9.800;2023-04-16T11:54:58;9.00;99.90
20035;DHT22;10178;48.034;9.800;2023-04-16T11:59:50;9.00;99.90
20035;DHT22;10178;48.034;9.800;2023-04-16T12:02:15;9.00;99.90
20035;DHT22;10178;48.034;9.800;2023-04-16T12:04:41;9.00;99.90
20035;DHT22;10178;48.034;9.800;2023-04-16T12:07:13;9.10;99.90
20035;DHT22;10178;48.034;9.800;2023-04-16T12:09:40;9.00;99.90
20035;DHT22;10178;48.034;9.800;2023-04-16T12:12:26;9.00;99.90
20035;DHT22;10178;48.034;9.800;2023-04-16T12:14:55;9.00;99.90
20035;DHT22;10178;48.034;9.800;2023-04-16T12:17:22;9.10;99.90
20035;DHT22;10178;48.034;9.800;2023-04-16T12:19:54;9.10;99.90
20035;DHT22;10178;48.034;9.800;2023-04-16T12:22:30;9.20;99.90
20035;DHT22;10178;48.034;9.800;2023-04-16T12:25:09;9.50;99.90
20035;DHT22;10178;48.034;9.800;2023-04-16T12:27:53;9.70;99.90
20035;DHT22;10178;48.034;9.800;2023-04-16T12:30:24;9.90;99.90
20035;DHT22;10178;48.034;9.800;2023-04-16T12:35:35;10.30;99.90
20035;DHT22;10178;48.034;9.800;2023-04-16T12:38:01;10.40;99.90
20035;DHT22;10178;48.034;9.800;2023-04-16T12:40:28;10.50;99.90
20035;DHT22;10178;48.034;9.800;2023-04-16T12:42:54;10.60;99.90
20035;DHT22;10178;48.034;9.800;2023-04-16T12:45:19;10.60;99.90
20035;DHT22;10178;48.034;9.800;2023-04-16T12:47:45;10.60;99.90
20035;DHT22;10178;48.034;9.800;2023-04-16T12:50:11;10.70;99.90
20035;DHT22;10178;48.034;9.800;2023-04-16T12:52:37;10.70;99.90
20035;DHT22;10178;48.034;9.800;2023-04-16T12:55:04;10.70;99.90
20035;DHT22;10178;48.034;9.800;2023-04-16T12:57:29;10.70;99.90
20035;DHT22;10178;48.034;9.800;2023-04-16T12:59:55;10.80;99.90
20035;DHT22;10178;48.034;9.800;2023-04-16T13:02:24;10.80;99.90
20035;DHT22;10178;48.034;9.800;2023-04-16T13:04:50;10.80;99.90
20035;DHT22;10178;48.034;9.800;2023-04-16T13:07:16;10.80;99.90
20035;DHT22;10178;48.034;9.800;2023-04-16T13:09:43;10.80;99.90
20035;DHT22;10178;48.034;9.800;2023-04-16T13:12:08;10.80;99.90
20035;DHT22;10178;48.034;9.800;2023-04-16T13:14:34;10.80;99.90
20035;DHT22;10178;48.034;9.800;2023-04-16T13:17:00;10.80;99.90
20035;DHT22;10178;48.034;9.800;2023-04-16T13:19:26;10.90;99.90
20035;DHT22;10178;48.034;9.800;2023-04-16T13:21:52;10.90;99.90
20035;DHT22;10178;48.034;9.800;2023-04-16T13:24:17;10.80;99.90
20035;DHT22;10178;48.034;9.800;2023-04-16T13:26:43;10.80;99.90
20035;DHT22;10178;48.034;9.800;2023-04-16T13:29:09;10.80;99.90
20035;DHT22;10178;48.034;9.800;2023-04-16T13:31:35;10.80;99.90
20035;DHT22;10178;48.034;9.800;2023-04-16T13:34:01;10.80;99.90
20035;DHT22;10178;48.034;9.800;2023-04-16T13:36:27;10.80;99.90
20035;DHT22;10178;48.034;9.800;2023-04-16T13:38:55;10.80;99.90
20035;DHT22;10178;48.034;9.800;2023-04-16T13:41:20;10.80;99.90
20035;DHT22;10178;48.034;9.800;2023-04-16T13:43:46;10.90;99.90
20035;DHT22;10178;48.034;9.800;2023-04-16T13:46:12;10.80;99.90
20035;DHT22;10178;48.034;9.800;2023-04-16T13:48:37;10.80;99.90
20035;DHT22;10178;48.034;9.800;2023-04-16T13:51:03;10.90;99.90
20035;DHT22;10178;48.034;9.800;2023-04-16T13:53:28;10.90;99.90
20035;DHT22;10178;48.034;9.800;2023-04-16T13:55:54;10.90;99.90
20035;DHT22;10178;48.034;9.800;2023-04-16T13:58:20;10.90;99.90
20035;DHT22;10178;48.034;9.800;2023-04-16T14:00:46;10.90;99.90
20035;DHT22;10178;48.034;9.800;2023-04-16T14:03:11;10.90;99.90
20035;DHT22;10178;48.034;9.800;2023-04-16T14:05:37;10.80;99.90
20035;DHT22;10178;48.034;9.800;2023-04-16T14:08:02;10.80;99.90
20035;DHT22;10178;48.034;9.800;2023-04-16T14:10:30;10.90;99.90
20035;DHT22;10178;48.034;9.800;2023-04-16T14:12:57;10.80;99.90
20035;DHT22;10178;48.034;9.800;2023-04-16T14:15:22;10.80;99.90
20035;DHT22;10178;48.034;9.800;2023-04-16T14:17:51;10.80;99.90
20035;DHT22;10178;48.034;9.800;2023-04-16T14:20:16;10.80;99.90
20035;DHT22;10178;48.034;9.800;2023-04-16T14:22:42;10.70;99.90
20035;DHT22;10178;48.034;9.800;2023-04-16T14:25:08;10.70;99.90
20035;DHT22;10178;48.034;9.800;2023-04-16T14:27:34;10.60;99.90
20035;DHT22;10178;48.034;9.800;2023-04-16T14:30:00;10.60;99.90
20035;DHT22;10178;48.034;9.800;2023-04-16T14:32:26;10.60;99.90
20035;DHT22;10178;48.034;9.800;2023-04-16T14:34:51;10.60;99.90
20035;DHT22;10178;48.034;9.800;2023-04-16T14:37:17;10.60;99.90
20035;DHT22;10178;48.034;9.800;2023-04-16T14:39:43;10.70;99.90
20035;DHT22;10178;48.034;9.800;2023-04-16T14:42:09;10.60;99.90
20035;DHT22;10178;48.034;9.800;2023-04-16T14:44:35;10.60;99.90
20035;DHT22;10178;48.034;9.800;2023-04-16T14:47:01;10.60;99.90
20035;DHT22;10178;48.034;9.800;2023-04-16T14:49:27;10.60;99.90
20035;DHT22;10178;48.034;9.800;2023-04-16T14:51:52;10.70;99.90
20035;DHT22;10178;48.034;9.800;2023-04-16T14:54:19;10.60;99.90
20035;DHT22;10178;48.034;9.800;2023-04-16T14:56:45;10.60;99.90
20035;DHT22;10178;48.034;9.800;2023-04-16T14:59:11;10.60;99.90
20035;DHT22;10178;48.034;9.800;2023-04-16T15:01:37;10.60;99.90
20035;DHT22;10178;48.034;9.800;2023-04-16T15:04:06;10.60;99.90
20035;DHT22;10178;48.034;9.800;2023-04-16T15:06:33;10.50;99.90
20035;DHT22;10178;48.034;9.800;2023-04-16T15:09:00;10.60;99.90
20035;DHT22;10178;48.034;9.800;2023-04-16T15:11:26;10.20;99.90
20035;DHT22;10178;48.034;9.800;2023-04-16T15:13:53;10.20;99.90
20035;DHT22;10178;48.034;9.800;2023-04-16T15:16:18;10.30;99.90
20035;DHT22;10178;48.034;9.800;2023-04-16T15:18:44;10.60;99.90
20035;DHT22;10178;48.034;9.800;2023-04-16T15:21:10;10.70;99.90
20035;DHT22;10178;48.034;9.800;2023-04-16T15:23:35;10.90;99.90
20035;DHT22;10178;48.034;9.800;2023-04-16T15:26:01;11.00;99.90
20035;DHT22;10178;48.034;9.800;2023-04-16T15:28:27;11.10;99.90
20035;DHT22;10178;48.034;9.800;2023-04-16T15:30:52;11.20;99.90
20035;DHT22;10178;48.034;9.800;2023-04-16T15:33:21;11.30;99.90
20035;DHT22;10178;48.034;9.800;2023-04-16T15:35:47;11.40;99.90
20035;DHT22;10178;48.034;9.800;2023-04-16T15:38:12;11.50;99.90
20035;DHT22;10178;48.034;9.800;2023-04-16T15:40:38;11.50;99.90
20035;DHT22;10178;48.034;9.800;2023-04-16T15:43:05;11.50;99.90
20035;DHT22;10178;48.034;9.800;2023-04-16T15:45:31;11.50;99.90
20035;DHT22;10178;48.034;9.800;2023-04-16T15:47:57;11.50;99.90
20035;DHT22;10178;48.034;9.800;2023-04-16T15:50:23;11.50;99.90
20035;DHT22;10178;48.034;9.800;2023-04-16T15:52:49;11.60;99.90
20035;DHT22;10178;48.034;9.800;2023-04-16T15:55:16;11.60;99.90
20035;DHT22;10178;48.034;9.800;2023-04-16T15:57:42;11.50;99.90
20035;DHT22;10178;48.034;9.800;2023-04-16T16:00:08;11.60;99.90
20035;DHT22;10178;48.034;9.800;2023-04-16T16:02:42;11.60;99.90